Friendship, Indiana
Current Conditions -  °F | °C
As of 9:12 AM on Thursday 29 Jan 2015 (Local Time) from KIMS Reporting Station
Scattered Clouds Scattered Clouds  
Wind Chill:   Ceiling: Unl
Heat Index:   Visibility: 10mi
Dew Point:   Wind: 15mph
Humidity: 66%   Direction: 180°S
Pressure: 29.88"   Gusts: 23mph
Location:  38.97°N, 85.15°W
Report Text: KIMS 291412Z AUTO 18013G20KT 10SM SCT090 SCT120 06/00 A2988 RMK AO1
Loading
Personal Weather Stations






























Interactive Weather Map New forecast layout! Learn more

10-Day Weather Forecast

Advertisements
Track Severe Weather on mobile